sensor_id;sensor_type;location;lat;lon;timestamp;temperature;humidity
20370;DHT22;10344;47.592;9.600;2022-08-19T00:01:31;18.70;99.90
20370;DHT22;10344;47.592;9.600;2022-08-19T00:04:07;18.80;99.90
20370;DHT22;10344;47.592;9.600;2022-08-19T00:06:34;18.70;99.90
20370;DHT22;10344;47.592;9.600;2022-08-19T00:09:01;18.60;99.90
20370;DHT22;10344;47.592;9.600;2022-08-19T00:11:27;18.60;99.90
20370;DHT22;10344;47.592;9.600;2022-08-19T00:13:58;18.60;99.90
20370;DHT22;10344;47.592;9.600;2022-08-19T00:16:25;18.60;99.90
20370;DHT22;10344;47.592;9.600;2022-08-19T00:18:51;18.60;99.90
20370;DHT22;10344;47.592;9.600;2022-08-19T00:21:19;18.60;99.90
20370;DHT22;10344;47.592;9.600;2022-08-19T00:23:44;18.60;99.90
20370;DHT22;10344;47.592;9.600;2022-08-19T00:26:10;18.60;99.90
20370;DHT22;10344;47.592;9.600;2022-08-19T00:28:36;18.70;99.90
20370;DHT22;10344;47.592;9.600;2022-08-19T00:31:07;18.70;99.90
20370;DHT22;10344;47.592;9.600;2022-08-19T00:34:00;18.70;99.90
20370;DHT22;10344;47.592;9.600;2022-08-19T00:39:50;18.60;99.90
20370;DHT22;10344;47.592;9.600;2022-08-19T00:42:18;18.60;99.90
20370;DHT22;10344;47.592;9.600;2022-08-19T00:44:44;18.60;99.90
20370;DHT22;10344;47.592;9.600;2022-08-19T00:47:12;18.60;99.90
20370;DHT22;10344;47.592;9.600;2022-08-19T00:49:47;18.60;99.90
20370;DHT22;10344;47.592;9.600;2022-08-19T00:52:32;18.50;99.90
20370;DHT22;10344;47.592;9.600;2022-08-19T00:55:06;18.60;99.90
20370;DHT22;10344;47.592;9.600;2022-08-19T00:57:36;18.60;99.90
20370;DHT22;10344;47.592;9.600;2022-08-19T01:00:07;18.60;99.90
20370;DHT22;10344;47.592;9.600;2022-08-19T01:02:37;18.50;99.90
20370;DHT22;10344;47.592;9.600;2022-08-19T01:05:09;18.50;99.90
20370;DHT22;10344;47.592;9.600;2022-08-19T01:07:38;18.50;99.90
20370;DHT22;10344;47.592;9.600;2022-08-19T01:10:07;18.50;99.90
20370;DHT22;10344;47.592;9.600;2022-08-19T01:12:33;18.40;99.90
20370;DHT22;10344;47.592;9.600;2022-08-19T01:15:00;18.40;99.90
20370;DHT22;10344;47.592;9.600;2022-08-19T01:17:25;18.30;99.90
20370;DHT22;10344;47.592;9.600;2022-08-19T01:19:51;18.30;99.90
20370;DHT22;10344;47.592;9.600;2022-08-19T01:24:54;18.30;99.90
20370;DHT22;10344;47.592;9.600;2022-08-19T01:27:22;18.30;99.90
20370;DHT22;10344;47.592;9.600;2022-08-19T01:29:49;18.30;99.90
20370;DHT22;10344;47.592;9.600;2022-08-19T01:32:16;18.20;99.90
20370;DHT22;10344;47.592;9.600;2022-08-19T01:34:42;18.10;99.90
20370;DHT22;10344;47.592;9.600;2022-08-19T01:37:13;18.00;99.90
20370;DHT22;10344;47.592;9.600;2022-08-19T01:39:40;18.00;99.90
20370;DHT22;10344;47.592;9.600;2022-08-19T01:42:08;17.90;99.90
20370;DHT22;10344;47.592;9.600;2022-08-19T01:44:39;17.80;99.90
20370;DHT22;10344;47.592;9.600;2022-08-19T01:47:08;17.70;99.90
20370;DHT22;10344;47.592;9.600;2022-08-19T01:49:35;17.60;99.90
20370;DHT22;10344;47.592;9.600;2022-08-19T01:52:03;17.60;99.90
20370;DHT22;10344;47.592;9.600;2022-08-19T01:54:29;17.60;99.90
20370;DHT22;10344;47.592;9.600;2022-08-19T01:57:06;17.50;99.90
20370;DHT22;10344;47.592;9.600;2022-08-19T01:59:35;17.50;99.90
20370;DHT22;10344;47.592;9.600;2022-08-19T02:02:05;17.50;99.90
20370;DHT22;10344;47.592;9.600;2022-08-19T02:04:34;17.50;99.90
20370;DHT22;10344;47.592;9.600;2022-08-19T02:07:01;17.50;99.90
20370;DHT22;10344;47.592;9.600;2022-08-19T02:09:26;17.50;99.90
20370;DHT22;10344;47.592;9.600;2022-08-19T02:11:52;17.50;99.90
20370;DHT22;10344;47.592;9.600;2022-08-19T02:14:18;17.50;99.90
20370;DHT22;10344;47.592;9.600;2022-08-19T02:16:44;17.50;99.90
20370;DHT22;10344;47.592;9.600;2022-08-19T02:19:10;17.50;99.90
20370;DHT22;10344;47.592;9.600;2022-08-19T02:21:38;17.50;99.90
20370;DHT22;10344;47.592;9.600;2022-08-19T02:24:04;17.40;99.90
20370;DHT22;10344;47.592;9.600;2022-08-19T02:26:29;17.40;99.90
20370;DHT22;10344;47.592;9.600;2022-08-19T02:28:56;17.40;99.90
20370;DHT22;10344;47.592;9.600;2022-08-19T02:31:24;17.40;99.90
20370;DHT22;10344;47.592;9.600;2022-08-19T02:33:50;17.40;99.90
20370;DHT22;10344;47.592;9.600;2022-08-19T02:36:17;17.40;99.90
20370;DHT22;10344;47.592;9.600;2022-08-19T02:38:44;17.40;99.90
20370;DHT22;10344;47.592;9.600;2022-08-19T02:41:19;17.40;99.90
20370;DHT22;10344;47.592;9.600;2022-08-19T02:43:45;17.40;99.90
20370;DHT22;10344;47.592;9.600;2022-08-19T02:46:12;17.40;99.90
20370;DHT22;10344;47.592;9.600;2022-08-19T02:48:39;17.40;99.90
20370;DHT22;10344;47.592;9.600;2022-08-19T02:51:07;17.40;99.90
20370;DHT22;10344;47.592;9.600;2022-08-19T02:53:33;17.30;99.90
20370;DHT22;10344;47.592;9.600;2022-08-19T02:55:58;17.30;99.90
20370;DHT22;10344;47.592;9.600;2022-08-19T02:58:26;17.40;99.90
20370;DHT22;10344;47.592;9.600;2022-08-19T03:00:56;17.40;99.90
20370;DHT22;10344;47.592;9.600;2022-08-19T03:03:22;17.40;99.90
20370;DHT22;10344;47.592;9.600;2022-08-19T03:05:50;17.40;99.90
20370;DHT22;10344;47.592;9.600;2022-08-19T03:08:16;17.40;99.90
20370;DHT22;10344;47.592;9.600;2022-08-19T03:10:46;17.40;99.90
20370;DHT22;10344;47.592;9.600;2022-08-19T03:13:17;17.40;99.90
20370;DHT22;10344;47.592;9.600;2022-08-19T03:15:45;17.40;99.90
20370;DHT22;10344;47.592;9.600;2022-08-19T03:18:11;17.40;99.90
20370;DHT22;10344;47.592;9.600;2022-08-19T03:20:43;17.40;99.90
20370;DHT22;10344;47.592;9.600;2022-08-19T03:23:13;17.40;99.90
20370;DHT22;10344;47.592;9.600;2022-08-19T03:25:40;17.40;99.90
20370;DHT22;10344;47.592;9.600;2022-08-19T03:28:09;17.50;99.90
20370;DHT22;10344;47.592;9.600;2022-08-19T03:30:35;17.50;99.90
20370;DHT22;10344;47.592;9.600;2022-08-19T03:33:01;17.50;99.90
20370;DHT22;10344;47.592;9.600;2022-08-19T03:35:27;17.50;99.90
20370;DHT22;10344;47.592;9.600;2022-08-19T03:37:53;17.50;99.90
20370;DHT22;10344;47.592;9.600;2022-08-19T03:40:19;17.50;99.90
20370;DHT22;10344;47.592;9.600;2022-08-19T03:42:44;17.60;99.90
20370;DHT22;10344;47.592;9.600;2022-08-19T03:45:11;17.60;99.90
20370;DHT22;10344;47.592;9.600;2022-08-19T03:47:37;17.50;99.90
20370;DHT22;10344;47.592;9.600;2022-08-19T03:50:04;17.50;99.90
20370;DHT22;10344;47.592;9.600;2022-08-19T03:52:30;17.50;99.90
20370;DHT22;10344;47.592;9.600;2022-08-19T03:54:57;17.60;99.90
20370;DHT22;10344;47.592;9.600;2022-08-19T03:57:23;17.60;99.90
20370;DHT22;10344;47.592;9.600;2022-08-19T03:59:51;17.60;99.90
20370;DHT22;10344;47.592;9.600;2022-08-19T04:02:19;17.60;99.90
20370;DHT22;10344;47.592;9.600;2022-08-19T04:04:45;17.70;99.90
20370;DHT22;10344;47.592;9.600;2022-08-19T04:07:13;17.80;99.90
20370;DHT22;10344;47.592;9.600;2022-08-19T04:09:41;17.80;99.90
20370;DHT22;10344;47.592;9.600;2022-08-19T04:12:07;17.80;99.90
20370;DHT22;10344;47.592;9.600;2022-08-19T04:14:34;17.80;99.90
20370;DHT22;10344;47.592;9.600;2022-08-19T04:17:01;17.80;99.90
20370;DHT22;10344;47.592;9.600;2022-08-19T04:19:33;17.70;99.90
20370;DHT22;10344;47.592;9.600;2022-08-19T04:21:59;17.70;99.90
20370;DHT22;10344;47.592;9.600;2022-08-19T04:24:25;17.80;99.90
20370;DHT22;10344;47.592;9.600;2022-08-19T04:26:53;17.80;99.90
20370;DHT22;10344;47.592;9.600;2022-08-19T04:29:24;17.80;99.90
20370;DHT22;10344;47.592;9.600;2022-08-19T04:31:51;17.80;99.90
20370;DHT22;10344;47.592;9.600;2022-08-19T04:34:20;17.80;99.90
20370;DHT22;10344;47.592;9.600;2022-08-19T04:36:50;17.80;99.90
20370;DHT22;10344;47.592;9.600;2022-08-19T04:39:19;17.80;99.90
20370;DHT22;10344;47.592;9.600;2022-08-19T04:41:45;17.80;99.90
20370;DHT22;10344;47.592;9.600;2022-08-19T04:44:34;17.80;99.90
20370;DHT22;10344;47.592;9.600;2022-08-19T04:47:01;17.90;99.90
20370;DHT22;10344;47.592;9.600;2022-08-19T04:49:30;17.90;99.90
20370;DHT22;10344;47.592;9.600;2022-08-19T04:51:56;17.90;99.90
20370;DHT22;10344;47.592;9.600;2022-08-19T04:54:24;17.80;99.90
20370;DHT22;10344;47.592;9.600;2022-08-19T04:56:54;17.90;99.90
20370;DHT22;10344;47.592;9.600;2022-08-19T04:59:21;17.90;99.90
20370;DHT22;10344;47.592;9.600;2022-08-19T05:01:47;17.90;99.90
20370;DHT22;10344;47.592;9.600;2022-08-19T05:04:18;18.00;99.90
20370;DHT22;10344;47.592;9.600;2022-08-19T05:06:46;17.90;99.90
20370;DHT22;10344;47.592;9.600;2022-08-19T05:09:12;17.90;99.90
20370;DHT22;10344;47.592;9.600;2022-08-19T05:11:38;18.00;99.90
20370;DHT22;10344;47.592;9.600;2022-08-19T05:14:05;17.90;99.90
20370;DHT22;10344;47.592;9.600;2022-08-19T05:16:31;17.90;99.90
20370;DHT22;10344;47.592;9.600;2022-08-19T05:18:57;17.90;99.90
20370;DHT22;10344;47.592;9.600;2022-08-19T05:21:42;18.00;99.90
20370;DHT22;10344;47.592;9.600;2022-08-19T05:24:30;18.00;99.90
20370;DHT22;10344;47.592;9.600;2022-08-19T05:26:56;18.00;99.90
20370;DHT22;10344;47.592;9.600;2022-08-19T05:29:23;18.00;99.90
20370;DHT22;10344;47.592;9.600;2022-08-19T05:31:51;18.00;99.90
20370;DHT22;10344;47.592;9.600;2022-08-19T05:34:18;18.10;99.90
20370;DHT22;10344;47.592;9.600;2022-08-19T05:36:47;18.10;99.90
20370;DHT22;10344;47.592;9.600;2022-08-19T05:39:15;18.00;99.90
20370;DHT22;10344;47.592;9.600;2022-08-19T05:41:52;18.10;99.90
20370;DHT22;10344;47.592;9.600;2022-08-19T05:44:19;18.10;99.90
20370;DHT22;10344;47.592;9.600;2022-08-19T05:46:47;18.10;99.90
20370;DHT22;10344;47.592;9.600;2022-08-19T05:49:16;18.10;99.90
20370;DHT22;10344;47.592;9.600;2022-08-19T05:51:42;18.20;99.90
20370;DHT22;10344;47.592;9.600;2022-08-19T05:54:08;18.20;99.90
20370;DHT22;10344;47.592;9.600;2022-08-19T05:56:34;18.20;99.90
20370;DHT22;10344;47.592;9.600;2022-08-19T05:59:04;18.20;99.90
20370;DHT22;10344;47.592;9.600;2022-08-19T06:01:34;18.20;99.90
20370;DHT22;10344;47.592;9.600;2022-08-19T06:04:00;18.20;99.90
20370;DHT22;10344;47.592;9.600;2022-08-19T06:06:26;18.20;99.90
20370;DHT22;10344;47.592;9.600;2022-08-19T06:08:54;18.10;99.90
20370;DHT22;10344;47.592;9.600;2022-08-19T06:13:46;18.20;99.90
20370;DHT22;10344;47.592;9.600;2022-08-19T06:16:16;18.20;99.90
20370;DHT22;10344;47.592;9.600;2022-08-19T06:18:55;18.30;99.90
20370;DHT22;10344;47.592;9.600;2022-08-19T06:21:25;18.40;99.90
20370;DHT22;10344;47.592;9.600;2022-08-19T06:23:52;18.40;99.90
20370;DHT22;10344;47.592;9.600;2022-08-19T06:26:19;18.40;99.90
20370;DHT22;10344;47.592;9.600;2022-08-19T06:28:46;18.50;99.90
20370;DHT22;10344;47.592;9.600;2022-08-19T06:31:17;18.50;99.90
20370;DHT22;10344;47.592;9.600;2022-08-19T06:33:46;18.50;99.90
20370;DHT22;10344;47.592;9.600;2022-08-19T06:36:20;18.40;99.90
20370;DHT22;10344;47.592;9.600;2022-08-19T06:38:46;18.40;99.90
20370;DHT22;10344;47.592;9.600;2022-08-19T06:41:12;18.40;99.90
20370;DHT22;10344;47.592;9.600;2022-08-19T06:43:40;18.40;99.90
20370;DHT22;10344;47.592;9.600;2022-08-19T06:46:14;18.40;99.90
20370;DHT22;10344;47.592;9.600;2022-08-19T06:48:41;18.40;99.90
20370;DHT22;10344;47.592;9.600;2022-08-19T06:51:06;18.30;99.90
20370;DHT22;10344;47.592;9.600;2022-08-19T06:53:34;18.40;99.90
20370;DHT22;10344;47.592;9.600;2022-08-19T06:56:00;18.40;99.90
20370;DHT22;10344;47.592;9.600;2022-08-19T06:58:31;18.40;99.90
20370;DHT22;10344;47.592;9.600;2022-08-19T07:01:06;18.50;99.90
20370;DHT22;10344;47.592;9.600;2022-08-19T07:03:36;18.60;99.90
20370;DHT22;10344;47.592;9.600;2022-08-19T07:06:04;18.50;99.90
20370;DHT22;10344;47.592;9.600;2022-08-19T07:08:30;18.50;99.90
20370;DHT22;10344;47.592;9.600;2022-08-19T07:10:56;18.60;99.90
20370;DHT22;10344;47.592;9.600;2022-08-19T07:13:21;18.60;99.90
20370;DHT22;10344;47.592;9.600;2022-08-19T07:15:48;18.60;99.90
20370;DHT22;10344;47.592;9.600;2022-08-19T07:18:14;18.50;99.90
20370;DHT22;10344;47.592;9.600;2022-08-19T07:20:40;18.50;99.90
20370;DHT22;10344;47.592;9.600;2022-08-19T07:23:06;18.40;99.90
20370;DHT22;10344;47.592;9.600;2022-08-19T07:25:32;18.30;99.90
20370;DHT22;10344;47.592;9.600;2022-08-19T07:27:58;18.40;99.90
20370;DHT22;10344;47.592;9.600;2022-08-19T07:30:23;18.50;99.90
20370;DHT22;10344;47.592;9.600;2022-08-19T07:32:49;18.50;99.90
20370;DHT22;10344;47.592;9.600;2022-08-19T07:35:17;18.50;99.90
20370;DHT22;10344;47.592;9.600;2022-08-19T07:37:47;18.50;99.90
20370;DHT22;10344;47.592;9.600;2022-08-19T07:40:15;18.60;99.90
20370;DHT22;10344;47.592;9.600;2022-08-19T07:42:41;18.50;99.90
20370;DHT22;10344;47.592;9.600;2022-08-19T07:45:08;18.50;99.90
20370;DHT22;10344;47.592;9.600;2022-08-19T07:47:33;18.50;99.90
20370;DHT22;10344;47.592;9.600;2022-08-19T07:50:00;18.50;99.90
20370;DHT22;10344;47.592;9.600;2022-08-19T07:52:25;18.50;99.90
20370;DHT22;10344;47.592;9.600;2022-08-19T07:54:53;18.60;99.90
20370;DHT22;10344;47.592;9.600;2022-08-19T07:57:18;18.60;99.90
20370;DHT22;10344;47.592;9.600;2022-08-19T07:59:44;18.70;99.90
20370;DHT22;10344;47.592;9.600;2022-08-19T08:02:10;18.80;99.90
20370;DHT22;10344;47.592;9.600;2022-08-19T08:04:35;18.80;99.90
20370;DHT22;10344;47.592;9.600;2022-08-19T08:07:20;18.90;99.90
20370;DHT22;10344;47.592;9.600;2022-08-19T08:10:06;18.80;99.90
20370;DHT22;10344;47.592;9.600;2022-08-19T08:12:37;19.00;99.90
20370;DHT22;10344;47.592;9.600;2022-08-19T08:15:10;19.00;99.90
20370;DHT22;10344;47.592;9.600;2022-08-19T08:17:35;19.10;99.90
20370;DHT22;10344;47.592;9.600;2022-08-19T08:20:04;19.00;99.90
20370;DHT22;10344;47.592;9.600;2022-08-19T08:22:32;19.00;99.90
20370;DHT22;10344;47.592;9.600;2022-08-19T08:25:19;19.00;99.90
20370;DHT22;10344;47.592;9.600;2022-08-19T08:27:46;18.80;99.90
20370;DHT22;10344;47.592;9.600;2022-08-19T08:30:17;18.80;99.90
20370;DHT22;10344;47.592;9.600;2022-08-19T08:32:46;18.70;99.90
20370;DHT22;10344;47.592;9.600;2022-08-19T08:35:14;18.80;99.90
20370;DHT22;10344;47.592;9.600;2022-08-19T08:37:40;18.80;99.90
20370;DHT22;10344;47.592;9.600;2022-08-19T08:42:46;18.80;99.90
20370;DHT22;10344;47.592;9.600;2022-08-19T08:45:18;18.80;99.90
20370;DHT22;10344;47.592;9.600;2022-08-19T08:47:47;18.80;99.90
20370;DHT22;10344;47.592;9.600;2022-08-19T08:50:21;18.80;99.90
20370;DHT22;10344;47.592;9.600;2022-08-19T08:52:55;18.80;99.90
20370;DHT22;10344;47.592;9.600;2022-08-19T08:55:26;18.70;99.90
20370;DHT22;10344;47.592;9.600;2022-08-19T08:57:59;18.70;99.90
20370;DHT22;10344;47.592;9.600;2022-08-19T09:00:33;18.70;99.90
20370;DHT22;10344;47.592;9.600;2022-08-19T09:03:01;18.70;99.90
20370;DHT22;10344;47.592;9.600;2022-08-19T09:05:39;18.60;99.90
20370;DHT22;10344;47.592;9.600;2022-08-19T09:10:54;18.60;99.90
20370;DHT22;10344;47.592;9.600;2022-08-19T09:16:05;18.50;99.90
20370;DHT22;10344;47.592;9.600;2022-08-19T09:18:41;18.50;99.90
20370;DHT22;10344;47.592;9.600;2022-08-19T09:21:08;18.60;99.90
20370;DHT22;10344;47.592;9.600;2022-08-19T09:23:35;18.60;99.90
20370;DHT22;10344;47.592;9.600;2022-08-19T09:26:01;18.70;99.90
20370;DHT22;10344;47.592;9.600;2022-08-19T09:28:27;18.70;99.90
20370;DHT22;10344;47.592;9.600;2022-08-19T09:30:54;18.80;99.90
20370;DHT22;10344;47.592;9.600;2022-08-19T09:33:20;18.80;99.90
20370;DHT22;10344;47.592;9.600;2022-08-19T09:35:45;18.80;99.90
20370;DHT22;10344;47.592;9.600;2022-08-19T09:38:11;18.80;99.90
20370;DHT22;10344;47.592;9.600;2022-08-19T09:40:37;18.80;99.90
20370;DHT22;10344;47.592;9.600;2022-08-19T09:43:07;18.90;99.90
20370;DHT22;10344;47.592;9.600;2022-08-19T09:45:37;18.90;99.90
20370;DHT22;10344;47.592;9.600;2022-08-19T09:48:03;18.90;99.90
20370;DHT22;10344;47.592;9.600;2022-08-19T09:50:30;18.90;99.90
20370;DHT22;10344;47.592;9.600;2022-08-19T09:53:00;18.90;99.90
20370;DHT22;10344;47.592;9.600;2022-08-19T09:55:26;18.80;99.90
20370;DHT22;10344;47.592;9.600;2022-08-19T09:57:56;18.70;99.90
20370;DHT22;10344;47.592;9.600;2022-08-19T10:00:21;18.50;99.90
20370;DHT22;10344;47.592;9.600;2022-08-19T10:02:47;18.50;99.90
20370;DHT22;10344;47.592;9.600;2022-08-19T10:05:12;18.50;99.90
20370;DHT22;10344;47.592;9.600;2022-08-19T10:07:57;18.40;99.90
20370;DHT22;10344;47.592;9.600;2022-08-19T10:10:22;18.40;99.90
20370;DHT22;10344;47.592;9.600;2022-08-19T10:12:48;18.40;99.90
20370;DHT22;10344;47.592;9.600;2022-08-19T10:15:16;18.40;99.90
20370;DHT22;10344;47.592;9.600;2022-08-19T10:17:46;18.40;99.90
20370;DHT22;10344;47.592;9.600;2022-08-19T10:20:12;18.40;99.90
20370;DHT22;10344;47.592;9.600;2022-08-19T10:22:37;18.50;99.90
20370;DHT22;10344;47.592;9.600;2022-08-19T10:25:04;18.50;99.90
20370;DHT22;10344;47.592;9.600;2022-08-19T10:27:30;18.60;99.90
20370;DHT22;10344;47.592;9.600;2022-08-19T10:29:56;18.60;99.90
20370;DHT22;10344;47.592;9.600;2022-08-19T10:32:22;18.50;99.90
20370;DHT22;10344;47.592;9.600;2022-08-19T10:34:50;18.60;99.90
20370;DHT22;10344;47.592;9.600;2022-08-19T10:37:17;18.70;99.90
20370;DHT22;10344;47.592;9.600;2022-08-19T10:39:46;18.70;99.90
20370;DHT22;10344;47.592;9.600;2022-08-19T10:42:15;18.80;99.90
20370;DHT22;10344;47.592;9.600;2022-08-19T10:44:44;18.90;99.90
20370;DHT22;10344;47.592;9.600;2022-08-19T10:47:10;18.90;99.90
20370;DHT22;10344;47.592;9.600;2022-08-19T10:49:36;19.00;99.90
20370;DHT22;10344;47.592;9.600;2022-08-19T10:52:22;19.00;99.90
20370;DHT22;10344;47.592;9.600;2022-08-19T10:55:03;19.00;99.90
20370;DHT22;10344;47.592;9.600;2022-08-19T10:57:48;19.00;99.90
20370;DHT22;10344;47.592;9.600;2022-08-19T11:00:17;19.00;99.90
20370;DHT22;10344;47.592;9.600;2022-08-19T11:02:45;18.90;99.90
20370;DHT22;10344;47.592;9.600;2022-08-19T11:05:11;18.90;99.90
20370;DHT22;10344;47.592;9.600;2022-08-19T11:07:43;18.90;99.90
20370;DHT22;10344;47.592;9.600;2022-08-19T11:10:11;18.90;99.90
20370;DHT22;10344;47.592;9.600;2022-08-19T11:12:39;18.90;99.90
20370;DHT22;10344;47.592;9.600;2022-08-19T11:15:07;18.90;99.90
20370;DHT22;10344;47.592;9.600;2022-08-19T11:17:34;18.90;99.90
20370;DHT22;10344;47.592;9.600;2022-08-19T11:20:03;18.90;99.90
20370;DHT22;10344;47.592;9.600;2022-08-19T11:22:31;18.90;99.90
20370;DHT22;10344;47.592;9.600;2022-08-19T11:24:56;18.90;99.90
20370;DHT22;10344;47.592;9.600;2022-08-19T11:27:22;18.90;99.90
20370;DHT22;10344;47.592;9.600;2022-08-19T11:29:48;18.90;99.90
20370;DHT22;10344;47.592;9.600;2022-08-19T11:32:13;18.90;99.90
20370;DHT22;10344;47.592;9.600;2022-08-19T11:34:40;18.90;99.90
20370;DHT22;10344;47.592;9.600;2022-08-19T11:37:05;18.90;99.90
20370;DHT22;10344;47.592;9.600;2022-08-19T11:39:32;18.80;99.90
20370;DHT22;10344;47.592;9.600;2022-08-19T11:42:00;18.80;99.90
20370;DHT22;10344;47.592;9.600;2022-08-19T11:44:28;18.80;99.90
20370;DHT22;10344;47.592;9.600;2022-08-19T11:47:00;18.90;99.90
20370;DHT22;10344;47.592;9.600;2022-08-19T11:49:25;19.00;99.90
20370;DHT22;10344;47.592;9.600;2022-08-19T11:51:51;19.00;99.90
20370;DHT22;10344;47.592;9.600;2022-08-19T11:54:17;19.00;99.90
20370;DHT22;10344;47.592;9.600;2022-08-19T11:56:43;19.00;99.90
20370;DHT22;10344;47.592;9.600;2022-08-19T11:59:09;19.10;99.90
20370;DHT22;10344;47.592;9.600;2022-08-19T12:01:36;19.00;99.90
20370;DHT22;10344;47.592;9.600;2022-08-19T12:04:04;19.00;99.90
20370;DHT22;10344;47.592;9.600;2022-08-19T12:06:31;19.10;99.90
20370;DHT22;10344;47.592;9.600;2022-08-19T12:08:59;19.10;99.90
20370;DHT22;10344;47.592;9.600;2022-08-19T12:11:26;19.20;99.90
20370;DHT22;10344;47.592;9.600;2022-08-19T12:13:52;19.20;99.90
20370;DHT22;10344;47.592;9.600;2022-08-19T12:16:22;19.30;99.90
20370;DHT22;10344;47.592;9.600;2022-08-19T12:18:51;19.30;99.90
20370;DHT22;10344;47.592;9.600;2022-08-19T12:21:20;19.30;99.90
20370;DHT22;10344;47.592;9.600;2022-08-19T12:23:53;19.20;99.90
20370;DHT22;10344;47.592;9.600;2022-08-19T12:26:20;19.30;99.90
20370;DHT22;10344;47.592;9.600;2022-08-19T12:28:45;19.30;99.90
20370;DHT22;10344;47.592;9.600;2022-08-19T12:31:13;19.30;99.90
20370;DHT22;10344;47.592;9.600;2022-08-19T12:33:40;19.30;99.90
20370;DHT22;10344;47.592;9.600;2022-08-19T12:36:08;19.30;99.90
20370;DHT22;10344;47.592;9.600;2022-08-19T12:38:35;19.20;99.90
20370;DHT22;10344;47.592;9.600;2022-08-19T12:41:01;19.20;99.90
20370;DHT22;10344;47.592;9.600;2022-08-19T12:43:35;19.20;99.90
20370;DHT22;10344;47.592;9.600;2022-08-19T12:46:04;19.20;99.90
20370;DHT22;10344;47.592;9.600;2022-08-19T12:48:30;19.30;99.90
20370;DHT22;10344;47.592;9.600;2022-08-19T12:50:56;19.30;99.90
20370;DHT22;10344;47.592;9.600;2022-08-19T12:53:22;19.20;99.90
20370;DHT22;10344;47.592;9.600;2022-08-19T12:55:47;19.10;99.90
20370;DHT22;10344;47.592;9.600;2022-08-19T12:58:13;19.10;99.90
20370;DHT22;10344;47.592;9.600;2022-08-19T13:00:39;19.00;99.90
20370;DHT22;10344;47.592;9.600;2022-08-19T13:03:05;19.00;99.90
20370;DHT22;10344;47.592;9.600;2022-08-19T13:05:32;19.10;99.90
20370;DHT22;10344;47.592;9.600;2022-08-19T13:07:59;19.10;99.90
20370;DHT22;10344;47.592;9.600;2022-08-19T13:10:30;19.10;99.90
20370;DHT22;10344;47.592;9.600;2022-08-19T13:13:02;19.10;99.90
20370;DHT22;10344;47.592;9.600;2022-08-19T13:15:28;19.10;99.90
20370;DHT22;10344;47.592;9.600;2022-08-19T13:17:57;19.10;99.90
20370;DHT22;10344;47.592;9.600;2022-08-19T13:20:24;19.00;99.90
20370;DHT22;10344;47.592;9.600;2022-08-19T13:22:50;19.00;99.90
20370;DHT22;10344;47.592;9.600;2022-08-19T13:25:19;19.00;99.90
20370;DHT22;10344;47.592;9.600;2022-08-19T13:27:48;18.90;99.90
20370;DHT22;10344;47.592;9.600;2022-08-19T13:30:16;18.90;99.90
20370;DHT22;10344;47.592;9.600;2022-08-19T13:33:01;18.90;99.90
20370;DHT22;10344;47.592;9.600;2022-08-19T13:35:45;18.80;99.90
20370;DHT22;10344;47.592;9.600;2022-08-19T13:38:16;18.80;99.90
20370;DHT22;10344;47.592;9.600;2022-08-19T13:40:42;18.70;99.90
20370;DHT22;10344;47.592;9.600;2022-08-19T13:43:09;18.70;99.90
20370;DHT22;10344;47.592;9.600;2022-08-19T13:45:35;18.70;99.90
20370;DHT22;10344;47.592;9.600;2022-08-19T13:48:03;18.70;99.90
20370;DHT22;10344;47.592;9.600;2022-08-19T13:50:32;18.70;99.90
20370;DHT22;10344;47.592;9.600;2022-08-19T13:52:59;18.80;99.90
20370;DHT22;10344;47.592;9.600;2022-08-19T13:55:26;18.80;99.90
20370;DHT22;10344;47.592;9.600;2022-08-19T13:57:57;18.90;99.90
20370;DHT22;10344;47.592;9.600;2022-08-19T14:00:27;18.80;99.90
20370;DHT22;10344;47.592;9.600;2022-08-19T14:02:54;18.70;99.90
20370;DHT22;10344;47.592;9.600;2022-08-19T14:05:21;18.70;99.90
20370;DHT22;10344;47.592;9.600;2022-08-19T14:07:47;18.80;99.90
20370;DHT22;10344;47.592;9.600;2022-08-19T14:10:14;18.80;99.90
20370;DHT22;10344;47.592;9.600;2022-08-19T14:12:40;18.80;99.90
20370;DHT22;10344;47.592;9.600;2022-08-19T14:15:08;18.80;99.90
20370;DHT22;10344;47.592;9.600;2022-08-19T14:17:37;18.70;99.90
20370;DHT22;10344;47.592;9.600;2022-08-19T14:20:06;18.80;99.90
20370;DHT22;10344;47.592;9.600;2022-08-19T14:22:39;18.70;99.90
20370;DHT22;10344;47.592;9.600;2022-08-19T14:25:07;18.80;99.90
20370;DHT22;10344;47.592;9.600;2022-08-19T14:27:35;18.70;99.90
20370;DHT22;10344;47.592;9.600;2022-08-19T14:30:02;18.90;99.90
20370;DHT22;10344;47.592;9.600;2022-08-19T14:32:28;18.90;99.90
20370;DHT22;10344;47.592;9.600;2022-08-19T14:34:54;18.90;99.90
20370;DHT22;10344;47.592;9.600;2022-08-19T14:37:20;18.90;99.90
20370;DHT22;10344;47.592;9.600;2022-08-19T14:39:46;18.90;99.90
20370;DHT22;10344;47.592;9.600;2022-08-19T14:42:12;18.90;99.90
20370;DHT22;10344;47.592;9.600;2022-08-19T14:44:40;19.00;99.90
20370;DHT22;10344;47.592;9.600;2022-08-19T14:47:06;19.10;99.90
20370;DHT22;10344;47.592;9.600;2022-08-19T14:49:33;19.10;99.90
20370;DHT22;10344;47.592;9.600;2022-08-19T14:51:58;19.10;99.90
20370;DHT22;10344;47.592;9.600;2022-08-19T14:54:24;19.00;99.90
20370;DHT22;10344;47.592;9.600;2022-08-19T14:56:52;19.00;99.90
20370;DHT22;10344;47.592;9.600;2022-08-19T14:59:18;19.00;99.90
20370;DHT22;10344;47.592;9.600;2022-08-19T15:01:43;18.90;99.90
20370;DHT22;10344;47.592;9.600;2022-08-19T15:04:09;18.80;99.90
20370;DHT22;10344;47.592;9.600;2022-08-19T15:06:35;18.80;99.90
20370;DHT22;10344;47.592;9.600;2022-08-19T15:09:02;18.80;99.90
20370;DHT22;10344;47.592;9.600;2022-08-19T15:11:31;18.70;99.90
20370;DHT22;10344;47.592;9.600;2022-08-19T15:13:58;18.70;99.90
20370;DHT22;10344;47.592;9.600;2022-08-19T15:16:27;18.70;99.90
20370;DHT22;10344;47.592;9.600;2022-08-19T15:18:55;18.80;99.90
20370;DHT22;10344;47.592;9.600;2022-08-19T15:21:23;18.70;99.90
20370;DHT22;10344;47.592;9.600;2022-08-19T15:23:51;18.80;99.90
20370;DHT22;10344;47.592;9.600;2022-08-19T15:26:18;18.80;99.90
20370;DHT22;10344;47.592;9.600;2022-08-19T15:28:45;18.70;99.90
20370;DHT22;10344;47.592;9.600;2022-08-19T15:31:12;18.80;99.90
20370;DHT22;10344;47.592;9.600;2022-08-19T15:33:38;18.70;99.90
20370;DHT22;10344;47.592;9.600;2022-08-19T15:36:08;18.70;99.90
20370;DHT22;10344;47.592;9.600;2022-08-19T15:38:34;18.70;99.90
20370;DHT22;10344;47.592;9.600;2022-08-19T15:41:01;18.70;99.90
20370;DHT22;10344;47.592;9.600;2022-08-19T15:43:47;18.70;99.90
20370;DHT22;10344;47.592;9.600;2022-08-19T15:46:20;18.70;99.90
20370;DHT22;10344;47.592;9.600;2022-08-19T15:48:55;18.70;99.90
20370;DHT22;10344;47.592;9.600;2022-08-19T15:51:21;18.70;99.90
20370;DHT22;10344;47.592;9.600;2022-08-19T15:53:47;18.70;99.90